sensor_id;sensor_type;location;lat;lon;timestamp;P1;P2;P0
32503;PMS5003;18953;45.930;13.640;2023-03-23T00:04:32;39;32;
32503;PMS5003;18953;45.930;13.640;2023-03-23T00:09:49;31;30;
32503;PMS5003;18953;45.930;13.640;2023-03-23T00:15:06;38;32;
32503;PMS5003;18953;45.930;13.640;2023-03-23T00:20:21;37;33;
32503;PMS5003;18953;45.930;13.640;2023-03-23T00:25:38;34;32;
32503;PMS5003;18953;45.930;13.640;2023-03-23T00:30:55;34;31;
32503;PMS5003;18953;45.930;13.640;2023-03-23T00:36:11;41;36;
32503;PMS5003;18953;45.930;13.640;2023-03-23T00:41:28;36;31;
32503;PMS5003;18953;45.930;13.640;2023-03-23T00:46:44;35;32;
32503;PMS5003;18953;45.930;13.640;2023-03-23T00:52:01;36;33;
32503;PMS5003;18953;45.930;13.640;2023-03-23T00:57:17;39;32;
32503;PMS5003;18953;45.930;13.640;2023-03-23T01:02:33;35;34;
32503;PMS5003;18953;45.930;13.640;2023-03-23T01:07:50;35;31;
32503;PMS5003;18953;45.930;13.640;2023-03-23T01:13:06;36;33;
32503;PMS5003;18953;45.930;13.640;2023-03-23T01:18:23;40;35;
32503;PMS5003;18953;45.930;13.640;2023-03-23T01:23:39;33;30;
32503;PMS5003;18953;45.930;13.640;2023-03-23T01:28:56;38;33;
32503;PMS5003;18953;45.930;13.640;2023-03-23T01:34:12;32;30;
32503;PMS5003;18953;45.930;13.640;2023-03-23T01:39:29;33;31;
32503;PMS5003;18953;45.930;13.640;2023-03-23T01:45:21;36;31;
32503;PMS5003;18953;45.930;13.640;2023-03-23T01:50:02;31;30;
32503;PMS5003;18953;45.930;13.640;2023-03-23T01:55:19;37;33;
32503;PMS5003;18953;45.930;13.640;2023-03-23T02:00:35;37;33;
32503;PMS5003;18953;45.930;13.640;2023-03-23T02:05:51;36;32;
32503;PMS5003;18953;45.930;13.640;2023-03-23T02:11:12;34;33;
32503;PMS5003;18953;45.930;13.640;2023-03-23T02:16:27;31;29;
32503;PMS5003;18953;45.930;13.640;2023-03-23T02:21:48;34;30;
32503;PMS5003;18953;45.930;13.640;2023-03-23T02:26:58;36;34;
32503;PMS5003;18953;45.930;13.640;2023-03-23T02:32:16;32;28;
32503;PMS5003;18953;45.930;13.640;2023-03-23T02:37:31;37;34;
32503;PMS5003;18953;45.930;13.640;2023-03-23T02:42:47;34;30;
32503;PMS5003;18953;45.930;13.640;2023-03-23T02:48:03;34;28;
32503;PMS5003;18953;45.930;13.640;2023-03-23T02:53:20;33;31;
32503;PMS5003;18953;45.930;13.640;2023-03-23T02:58:36;36;33;
32503;PMS5003;18953;45.930;13.640;2023-03-23T03:03:54;34;31;
32503;PMS5003;18953;45.930;13.640;2023-03-23T03:09:11;31;28;
32503;PMS5003;18953;45.930;13.640;2023-03-23T03:14:27;32;30;
32503;PMS5003;18953;45.930;13.640;2023-03-23T03:19:43;33;30;
32503;PMS5003;18953;45.930;13.640;2023-03-23T03:24:59;32;28;
32503;PMS5003;18953;45.930;13.640;2023-03-23T03:30:16;33;30;
32503;PMS5003;18953;45.930;13.640;2023-03-23T03:35:35;31;29;
32503;PMS5003;18953;45.930;13.640;2023-03-23T03:40:49;38;34;
32503;PMS5003;18953;45.930;13.640;2023-03-23T03:46:05;30;27;
32503;PMS5003;18953;45.930;13.640;2023-03-23T03:51:21;28;24;
32503;PMS5003;18953;45.930;13.640;2023-03-23T03:56:37;34;29;
32503;PMS5003;18953;45.930;13.640;2023-03-23T04:01:54;32;28;
32503;PMS5003;18953;45.930;13.640;2023-03-23T04:07:10;30;27;
32503;PMS5003;18953;45.930;13.640;2023-03-23T04:12:27;28;25;
32503;PMS5003;18953;45.930;13.640;2023-03-23T04:17:43;27;27;
32503;PMS5003;18953;45.930;13.640;2023-03-23T04:23:00;32;30;
32503;PMS5003;18953;45.930;13.640;2023-03-23T04:28:16;31;28;
32503;PMS5003;18953;45.930;13.640;2023-03-23T04:33:33;35;29;
32503;PMS5003;18953;45.930;13.640;2023-03-23T04:38:49;28;25;
32503;PMS5003;18953;45.930;13.640;2023-03-23T04:44:06;26;25;
32503;PMS5003;18953;45.930;13.640;2023-03-23T04:49:22;26;25;
32503;PMS5003;18953;45.930;13.640;2023-03-23T04:54:39;26;25;
32503;PMS5003;18953;45.930;13.640;2023-03-23T04:59:56;65;52;
32503;PMS5003;18953;45.930;13.640;2023-03-23T05:05:13;31;26;
32503;PMS5003;18953;45.930;13.640;2023-03-23T05:10:28;38;32;
32503;PMS5003;18953;45.930;13.640;2023-03-23T05:15:45;38;34;
32503;PMS5003;18953;45.930;13.640;2023-03-23T05:21:02;36;32;
32503;PMS5003;18953;45.930;13.640;2023-03-23T05:26:18;37;31;
32503;PMS5003;18953;45.930;13.640;2023-03-23T05:31:34;36;26;
32503;PMS5003;18953;45.930;13.640;2023-03-23T05:36:50;38;36;
32503;PMS5003;18953;45.930;13.640;2023-03-23T05:42:07;62;50;
32503;PMS5003;18953;45.930;13.640;2023-03-23T05:47:24;60;48;
32503;PMS5003;18953;45.930;13.640;2023-03-23T05:52:40;51;42;
32503;PMS5003;18953;45.930;13.640;2023-03-23T05:57:58;43;39;
32503;PMS5003;18953;45.930;13.640;2023-03-23T06:03:13;58;42;
32503;PMS5003;18953;45.930;13.640;2023-03-23T06:08:29;38;35;
32503;PMS5003;18953;45.930;13.640;2023-03-23T06:13:46;56;45;
32503;PMS5003;18953;45.930;13.640;2023-03-23T06:19:02;46;41;
32503;PMS5003;18953;45.930;13.640;2023-03-23T06:24:19;66;53;
32503;PMS5003;18953;45.930;13.640;2023-03-23T06:29:36;74;57;
32503;PMS5003;18953;45.930;13.640;2023-03-23T06:34:52;82;62;
32503;PMS5003;18953;45.930;13.640;2023-03-23T06:40:09;69;56;
32503;PMS5003;18953;45.930;13.640;2023-03-23T06:45:25;68;52;
32503;PMS5003;18953;45.930;13.640;2023-03-23T06:50:42;58;47;
32503;PMS5003;18953;45.930;13.640;2023-03-23T06:55:59;57;46;
32503;PMS5003;18953;45.930;13.640;2023-03-23T07:01:15;51;42;
32503;PMS5003;18953;45.930;13.640;2023-03-23T07:06:32;58;45;
32503;PMS5003;18953;45.930;13.640;2023-03-23T07:11:49;53;44;
32503;PMS5003;18953;45.930;13.640;2023-03-23T07:17:05;52;43;
32503;PMS5003;18953;45.930;13.640;2023-03-23T07:22:22;48;38;
32503;PMS5003;18953;45.930;13.640;2023-03-23T07:27:38;44;38;
32503;PMS5003;18953;45.930;13.640;2023-03-23T07:32:55;43;38;
32503;PMS5003;18953;45.930;13.640;2023-03-23T07:38:11;44;38;
32503;PMS5003;18953;45.930;13.640;2023-03-23T07:43:27;55;45;
32503;PMS5003;18953;45.930;13.640;2023-03-23T07:48:44;48;39;
32503;PMS5003;18953;45.930;13.640;2023-03-23T07:54:00;50;40;
32503;PMS5003;18953;45.930;13.640;2023-03-23T07:59:17;50;39;
32503;PMS5003;18953;45.930;13.640;2023-03-23T08:04:33;42;37;
32503;PMS5003;18953;45.930;13.640;2023-03-23T08:09:50;33;32;
32503;PMS5003;18953;45.930;13.640;2023-03-23T08:15:07;37;34;
32503;PMS5003;18953;45.930;13.640;2023-03-23T08:20:23;31;29;
32503;PMS5003;18953;45.930;13.640;2023-03-23T08:25:40;34;32;
32503;PMS5003;18953;45.930;13.640;2023-03-23T08:30:57;33;29;
32503;PMS5003;18953;45.930;13.640;2023-03-23T08:36:13;34;32;
32503;PMS5003;18953;45.930;13.640;2023-03-23T08:41:29;29;26;
32503;PMS5003;18953;45.930;13.640;2023-03-23T08:46:46;34;28;
32503;PMS5003;18953;45.930;13.640;2023-03-23T08:52:02;41;35;
32503;PMS5003;18953;45.930;13.640;2023-03-23T08:57:19;37;32;
32503;PMS5003;18953;45.930;13.640;2023-03-23T09:02:35;26;25;
32503;PMS5003;18953;45.930;13.640;2023-03-23T09:07:52;30;26;
32503;PMS5003;18953;45.930;13.640;2023-03-23T09:13:08;25;23;
32503;PMS5003;18953;45.930;13.640;2023-03-23T09:18:24;25;21;
32503;PMS5003;18953;45.930;13.640;2023-03-23T09:23:41;16;16;
32503;PMS5003;18953;45.930;13.640;2023-03-23T09:28:57;19;17;
32503;PMS5003;18953;45.930;13.640;2023-03-23T09:34:14;21;20;
32503;PMS5003;18953;45.930;13.640;2023-03-23T09:39:30;19;19;
32503;PMS5003;18953;45.930;13.640;2023-03-23T09:44:51;41;34;
32503;PMS5003;18953;45.930;13.640;2023-03-23T09:50:06;35;31;
32503;PMS5003;18953;45.930;13.640;2023-03-23T09:55:21;21;21;
32503;PMS5003;18953;45.930;13.640;2023-03-23T10:00:38;17;17;
32503;PMS5003;18953;45.930;13.640;2023-03-23T10:05:53;16;15;
32503;PMS5003;18953;45.930;13.640;2023-03-23T10:11:10;12;11;
32503;PMS5003;18953;45.930;13.640;2023-03-23T10:16:28;42;35;
32503;PMS5003;18953;45.930;13.640;2023-03-23T10:21:44;22;20;
32503;PMS5003;18953;45.930;13.640;2023-03-23T10:27:01;18;16;
32503;PMS5003;18953;45.930;13.640;2023-03-23T10:32:16;14;12;
32503;PMS5003;18953;45.930;13.640;2023-03-23T10:37:32;18;16;
32503;PMS5003;18953;45.930;13.640;2023-03-23T10:42:48;18;16;
32503;PMS5003;18953;45.930;13.640;2023-03-23T10:48:07;16;16;
32503;PMS5003;18953;45.930;13.640;2023-03-23T10:53:23;19;17;
32503;PMS5003;18953;45.930;13.640;2023-03-23T10:58:38;20;19;
32503;PMS5003;18953;45.930;13.640;2023-03-23T11:03:54;16;15;
32503;PMS5003;18953;45.930;13.640;2023-03-23T11:09:11;16;14;
32503;PMS5003;18953;45.930;13.640;2023-03-23T11:14:28;14;12;
32503;PMS5003;18953;45.930;13.640;2023-03-23T11:19:43;11;10;
32503;PMS5003;18953;45.930;13.640;2023-03-23T11:25:00;10;10;
32503;PMS5003;18953;45.930;13.640;2023-03-23T11:30:20;11;9;
32503;PMS5003;18953;45.930;13.640;2023-03-23T11:35:33;11;10;
32503;PMS5003;18953;45.930;13.640;2023-03-23T11:40:50;8;8;
32503;PMS5003;18953;45.930;13.640;2023-03-23T11:46:09;10;10;
32503;PMS5003;18953;45.930;13.640;2023-03-23T11:51:24;11;11;
32503;PMS5003;18953;45.930;13.640;2023-03-23T11:56:39;10;9;
32503;PMS5003;18953;45.930;13.640;2023-03-23T12:01:56;10;9;
32503;PMS5003;18953;45.930;13.640;2023-03-23T12:07:15;14;13;
32503;PMS5003;18953;45.930;13.640;2023-03-23T12:12:30;12;11;
32503;PMS5003;18953;45.930;13.640;2023-03-23T12:17:46;10;10;
32503;PMS5003;18953;45.930;13.640;2023-03-23T12:23:03;10;9;
32503;PMS5003;18953;45.930;13.640;2023-03-23T12:28:18;6;5;
32503;PMS5003;18953;45.930;13.640;2023-03-23T12:33:35;9;9;
32503;PMS5003;18953;45.930;13.640;2023-03-23T12:38:54;11;10;
32503;PMS5003;18953;45.930;13.640;2023-03-23T12:44:05;7;7;
32503;PMS5003;18953;45.930;13.640;2023-03-23T12:49:22;8;7;
32503;PMS5003;18953;45.930;13.640;2023-03-23T12:54:39;7;7;
32503;PMS5003;18953;45.930;13.640;2023-03-23T13:00:02;8;8;
32503;PMS5003;18953;45.930;13.640;2023-03-23T13:05:26;8;8;
32503;PMS5003;18953;45.930;13.640;2023-03-23T13:10:32;9;8;
32503;PMS5003;18953;45.930;13.640;2023-03-23T13:15:53;10;9;
32503;PMS5003;18953;45.930;13.640;2023-03-23T13:21:07;12;12;
32503;PMS5003;18953;45.930;13.640;2023-03-23T13:26:22;12;11;
32503;PMS5003;18953;45.930;13.640;2023-03-23T13:31:38;11;10;
32503;PMS5003;18953;45.930;13.640;2023-03-23T13:36:54;11;11;
32503;PMS5003;18953;45.930;13.640;2023-03-23T13:42:17;12;12;
32503;PMS5003;18953;45.930;13.640;2023-03-23T13:47:27;13;12;
32503;PMS5003;18953;45.930;13.640;2023-03-23T13:52:48;13;12;
32503;PMS5003;18953;45.930;13.640;2023-03-23T14:03:18;10;9;
32503;PMS5003;18953;45.930;13.640;2023-03-23T14:08:40;9;8;
32503;PMS5003;18953;45.930;13.640;2023-03-23T14:13:57;9;8;
32503;PMS5003;18953;45.930;13.640;2023-03-23T14:19:13;8;8;
32503;PMS5003;18953;45.930;13.640;2023-03-23T14:24:22;10;9;
32503;PMS5003;18953;45.930;13.640;2023-03-23T14:29:37;7;7;
32503;PMS5003;18953;45.930;13.640;2023-03-23T14:34:53;8;7;
32503;PMS5003;18953;45.930;13.640;2023-03-23T14:40:11;8;7;
32503;PMS5003;18953;45.930;13.640;2023-03-23T14:45:26;11;10;
32503;PMS5003;18953;45.930;13.640;2023-03-23T14:50:48;10;9;
32503;PMS5003;18953;45.930;13.640;2023-03-23T14:56:00;8;6;
32503;PMS5003;18953;45.930;13.640;2023-03-23T15:01:17;8;8;
32503;PMS5003;18953;45.930;13.640;2023-03-23T15:06:32;10;9;
32503;PMS5003;18953;45.930;13.640;2023-03-23T15:11:52;12;11;
32503;PMS5003;18953;45.930;13.640;2023-03-23T15:17:04;13;12;
32503;PMS5003;18953;45.930;13.640;2023-03-23T15:22:21;14;12;
32503;PMS5003;18953;45.930;13.640;2023-03-23T15:27:39;11;10;
32503;PMS5003;18953;45.930;13.640;2023-03-23T15:32:54;9;9;
32503;PMS5003;18953;45.930;13.640;2023-03-23T15:38:14;9;9;
32503;PMS5003;18953;45.930;13.640;2023-03-23T15:43:26;10;9;
32503;PMS5003;18953;45.930;13.640;2023-03-23T15:48:46;9;8;
32503;PMS5003;18953;45.930;13.640;2023-03-23T15:53:58;10;8;
32503;PMS5003;18953;45.930;13.640;2023-03-23T15:59:15;7;7;
32503;PMS5003;18953;45.930;13.640;2023-03-23T16:04:31;8;8;
32503;PMS5003;18953;45.930;13.640;2023-03-23T16:09:47;13;12;
32503;PMS5003;18953;45.930;13.640;2023-03-23T16:15:04;10;9;
32503;PMS5003;18953;45.930;13.640;2023-03-23T16:20:21;8;8;
32503;PMS5003;18953;45.930;13.640;2023-03-23T16:25:37;12;11;
32503;PMS5003;18953;45.930;13.640;2023-03-23T16:30:53;9;8;
32503;PMS5003;18953;45.930;13.640;2023-03-23T16:36:10;10;10;
32503;PMS5003;18953;45.930;13.640;2023-03-23T16:41:26;10;10;
32503;PMS5003;18953;45.930;13.640;2023-03-23T16:46:42;14;12;
32503;PMS5003;18953;45.930;13.640;2023-03-23T16:51:58;10;10;
32503;PMS5003;18953;45.930;13.640;2023-03-23T16:57:15;18;14;
32503;PMS5003;18953;45.930;13.640;2023-03-23T17:02:31;12;12;
32503;PMS5003;18953;45.930;13.640;2023-03-23T17:07:47;12;10;
32503;PMS5003;18953;45.930;13.640;2023-03-23T17:13:04;14;13;
32503;PMS5003;18953;45.930;13.640;2023-03-23T17:18:20;14;13;
32503;PMS5003;18953;45.930;13.640;2023-03-23T17:23:36;15;14;
32503;PMS5003;18953;45.930;13.640;2023-03-23T17:28:53;16;15;
32503;PMS5003;18953;45.930;13.640;2023-03-23T17:34:09;13;13;
32503;PMS5003;18953;45.930;13.640;2023-03-23T17:39:26;16;14;
32503;PMS5003;18953;45.930;13.640;2023-03-23T17:44:42;21;19;
32503;PMS5003;18953;45.930;13.640;2023-03-23T17:49:58;20;18;
32503;PMS5003;18953;45.930;13.640;2023-03-23T17:55:15;17;17;
32503;PMS5003;18953;45.930;13.640;2023-03-23T18:00:31;22;20;
32503;PMS5003;18953;45.930;13.640;2023-03-23T18:05:48;20;20;
32503;PMS5003;18953;45.930;13.640;2023-03-23T18:11:04;17;16;
32503;PMS5003;18953;45.930;13.640;2023-03-23T18:16:20;19;17;
32503;PMS5003;18953;45.930;13.640;2023-03-23T18:21:37;17;17;
32503;PMS5003;18953;45.930;13.640;2023-03-23T18:26:53;23;22;
32503;PMS5003;18953;45.930;13.640;2023-03-23T18:32:09;55;44;
32503;PMS5003;18953;45.930;13.640;2023-03-23T18:37:26;45;38;
32503;PMS5003;18953;45.930;13.640;2023-03-23T18:42:42;47;38;
32503;PMS5003;18953;45.930;13.640;2023-03-23T18:47:59;35;31;
32503;PMS5003;18953;45.930;13.640;2023-03-23T18:53:16;43;35;
32503;PMS5003;18953;45.930;13.640;2023-03-23T18:58:33;40;34;
32503;PMS5003;18953;45.930;13.640;2023-03-23T19:03:49;41;33;
32503;PMS5003;18953;45.930;13.640;2023-03-23T19:09:06;41;36;
32503;PMS5003;18953;45.930;13.640;2023-03-23T19:14:22;52;41;
32503;PMS5003;18953;45.930;13.640;2023-03-23T19:19:39;38;34;
32503;PMS5003;18953;45.930;13.640;2023-03-23T19:24:55;32;30;
32503;PMS5003;18953;45.930;13.640;2023-03-23T19:30:12;33;32;
32503;PMS5003;18953;45.930;13.640;2023-03-23T19:35:29;33;30;
32503;PMS5003;18953;45.930;13.640;2023-03-23T19:40:49;39;32;
32503;PMS5003;18953;45.930;13.640;2023-03-23T19:46:01;41;35;
32503;PMS5003;18953;45.930;13.640;2023-03-23T19:51:19;38;34;
32503;PMS5003;18953;45.930;13.640;2023-03-23T19:56:34;37;34;
32503;PMS5003;18953;45.930;13.640;2023-03-23T20:01:50;44;36;
32503;PMS5003;18953;45.930;13.640;2023-03-23T20:07:08;41;36;
32503;PMS5003;18953;45.930;13.640;2023-03-23T20:12:24;38;35;
32503;PMS5003;18953;45.930;13.640;2023-03-23T20:17:41;32;32;
32503;PMS5003;18953;45.930;13.640;2023-03-23T20:22:57;50;41;
32503;PMS5003;18953;45.930;13.640;2023-03-23T20:28:14;59;46;
32503;PMS5003;18953;45.930;13.640;2023-03-23T20:33:30;59;49;
32503;PMS5003;18953;45.930;13.640;2023-03-23T20:38:47;55;44;
32503;PMS5003;18953;45.930;13.640;2023-03-23T20:44:05;60;50;
32503;PMS5003;18953;45.930;13.640;2023-03-23T20:49:20;54;44;
32503;PMS5003;18953;45.930;13.640;2023-03-23T20:54:38;55;44;
32503;PMS5003;18953;45.930;13.640;2023-03-23T20:59:54;51;42;
32503;PMS5003;18953;45.930;13.640;2023-03-23T21:05:11;53;44;
32503;PMS5003;18953;45.930;13.640;2023-03-23T21:10:27;52;42;
32503;PMS5003;18953;45.930;13.640;2023-03-23T21:15:44;52;43;
32503;PMS5003;18953;45.930;13.640;2023-03-23T21:21:00;46;38;
32503;PMS5003;18953;45.930;13.640;2023-03-23T21:26:17;46;39;
32503;PMS5003;18953;45.930;13.640;2023-03-23T21:31:34;43;37;
32503;PMS5003;18953;45.930;13.640;2023-03-23T21:36:50;48;39;
32503;PMS5003;18953;45.930;13.640;2023-03-23T21:42:06;40;37;
32503;PMS5003;18953;45.930;13.640;2023-03-23T21:47:23;42;35;
32503;PMS5003;18953;45.930;13.640;2023-03-23T21:52:39;41;37;
32503;PMS5003;18953;45.930;13.640;2023-03-23T21:57:56;49;41;
32503;PMS5003;18953;45.930;13.640;2023-03-23T22:03:13;47;39;
32503;PMS5003;18953;45.930;13.640;2023-03-23T22:08:29;48;40;
32503;PMS5003;18953;45.930;13.640;2023-03-23T22:13:46;43;38;
32503;PMS5003;18953;45.930;13.640;2023-03-23T22:19:02;37;34;
32503;PMS5003;18953;45.930;13.640;2023-03-23T22:24:19;36;33;
32503;PMS5003;18953;45.930;13.640;2023-03-23T22:29:36;34;33;
32503;PMS5003;18953;45.930;13.640;2023-03-23T22:34:52;36;31;
32503;PMS5003;18953;45.930;13.640;2023-03-23T22:40:09;43;38;
32503;PMS5003;18953;45.930;13.640;2023-03-23T22:45:26;62;51;
32503;PMS5003;18953;45.930;13.640;2023-03-23T22:50:43;29;27;
32503;PMS5003;18953;45.930;13.640;2023-03-23T22:55:59;34;32;
32503;PMS5003;18953;45.930;13.640;2023-03-23T23:01:16;40;36;
32503;PMS5003;18953;45.930;13.640;2023-03-23T23:06:32;43;36;
32503;PMS5003;18953;45.930;13.640;2023-03-23T23:11:48;46;37;
32503;PMS5003;18953;45.930;13.640;2023-03-23T23:17:05;44;36;
32503;PMS5003;18953;45.930;13.640;2023-03-23T23:22:21;37;34;
32503;PMS5003;18953;45.930;13.640;2023-03-23T23:27:38;37;32;
32503;PMS5003;18953;45.930;13.640;2023-03-23T23:32:54;36;32;
32503;PMS5003;18953;45.930;13.640;2023-03-23T23:38:10;31;29;
32503;PMS5003;18953;45.930;13.640;2023-03-23T23:43:27;32;29;
32503;PMS5003;18953;45.930;13.640;2023-03-23T23:48:44;28;26;
32503;PMS5003;18953;45.930;13.640;2023-03-23T23:54:00;31;25;
32503;PMS5003;18953;45.930;13.640;2023-03-23T23:59:16;26;24;
